Kezdőlap
METAR-TAF:

METAR-TAF

Repülőterek :

Clinton Municipal Airport

Clinton, Iowa, Amerikai Egyesült Államok

földrajzi szélesség: 41-50N, földrajzi hosszúság: 090-20W, magasság: 216 m

Jelenlegi meteorológiai megfigyelések

A jelentés 48 perccel ezelõtt készült, 13:56 UTC
Északnyugati szél 11 kt
Hőmérséklet 10°C
Páratartalom 76%
Légköri nyomás 1017 hPa
Látótávolság: 16.1 km
Derült ég

METAR: KCWI 011356Z AUTO 32011KT 10SM CLR 10/06 A3004 RMK AO2 SLP178 T01000061

Idő: 09:44 (14:44 UTC)


TAF: hiányzik

Meteorológiai megfigyelések és előrejelzések több, mint 4000 repülőtéren (METAR és TAF jelentéseket).

A térképen piros és sárga pontok jelzik az elérhető meteorológiai állomásokat.

Mozgassa az egeret a pont fölött, hogy megjelenjen az állomás neve.

Azután kattintson az időjárási megfigyelések és előrejelzések megtekintéséhez.

A térkép megváltoztatása: kattintson a fekete keresztel jelölt zöld gombra ráközelítéshez, a vonallal jelölt zöld gombra távolításhoz, vagy a zöld nyilakra a szomszédos térképek eléréséhez.


METAR-TAF: